sensor_id;sensor_type;location;lat;lon;timestamp;P1;durP1;ratioP1;P2;durP2;ratioP2
53959;SDS011;39866;48.638;-2.020;2024-02-28T00:02:16;11.13;;;6.57;;
53959;SDS011;39866;48.638;-2.020;2024-02-28T00:04:42;8.43;;;6.35;;
53959;SDS011;39866;48.638;-2.020;2024-02-28T00:07:07;7.85;;;5.72;;
53959;SDS011;39866;48.638;-2.020;2024-02-28T00:09:32;8.15;;;6.07;;
53959;SDS011;39866;48.638;-2.020;2024-02-28T00:11:58;8.13;;;6.40;;
53959;SDS011;39866;48.638;-2.020;2024-02-28T00:14:23;8.20;;;5.85;;
53959;SDS011;39866;48.638;-2.020;2024-02-28T00:16:48;9.38;;;5.90;;
53959;SDS011;39866;48.638;-2.020;2024-02-28T00:19:14;9.05;;;5.85;;
53959;SDS011;39866;48.638;-2.020;2024-02-28T00:21:40;8.52;;;6.13;;
53959;SDS011;39866;48.638;-2.020;2024-02-28T00:24:06;6.80;;;6.05;;
53959;SDS011;39866;48.638;-2.020;2024-02-28T00:26:32;8.20;;;6.10;;
53959;SDS011;39866;48.638;-2.020;2024-02-28T00:28:57;8.40;;;6.10;;
53959;SDS011;39866;48.638;-2.020;2024-02-28T00:31:23;10.40;;;6.53;;
53959;SDS011;39866;48.638;-2.020;2024-02-28T00:33:48;8.57;;;6.15;;
53959;SDS011;39866;48.638;-2.020;2024-02-28T00:36:14;7.47;;;5.97;;
53959;SDS011;39866;48.638;-2.020;2024-02-28T00:38:40;9.43;;;6.00;;
53959;SDS011;39866;48.638;-2.020;2024-02-28T00:41:06;9.70;;;6.28;;
53959;SDS011;39866;48.638;-2.020;2024-02-28T00:43:31;8.02;;;5.70;;
53959;SDS011;39866;48.638;-2.020;2024-02-28T00:45:56;9.57;;;6.38;;
53959;SDS011;39866;48.638;-2.020;2024-02-28T00:48:23;8.45;;;5.78;;
53959;SDS011;39866;48.638;-2.020;2024-02-28T00:50:48;6.47;;;5.55;;
53959;SDS011;39866;48.638;-2.020;2024-02-28T00:53:14;6.63;;;5.38;;
53959;SDS011;39866;48.638;-2.020;2024-02-28T00:55:39;8.80;;;5.38;;
53959;SDS011;39866;48.638;-2.020;2024-02-28T00:58:04;7.85;;;5.20;;
53959;SDS011;39866;48.638;-2.020;2024-02-28T01:00:29;7.13;;;6.10;;
53959;SDS011;39866;48.638;-2.020;2024-02-28T01:02:55;11.32;;;5.50;;
53959;SDS011;39866;48.638;-2.020;2024-02-28T01:05:20;8.27;;;5.35;;
53959;SDS011;39866;48.638;-2.020;2024-02-28T01:07:46;6.30;;;5.30;;
53959;SDS011;39866;48.638;-2.020;2024-02-28T01:10:11;6.75;;;5.30;;
53959;SDS011;39866;48.638;-2.020;2024-02-28T01:12:37;6.47;;;5.07;;
53959;SDS011;39866;48.638;-2.020;2024-02-28T01:15:02;6.97;;;5.20;;
53959;SDS011;39866;48.638;-2.020;2024-02-28T01:17:28;5.45;;;4.35;;
53959;SDS011;39866;48.638;-2.020;2024-02-28T01:19:54;6.60;;;4.57;;
53959;SDS011;39866;48.638;-2.020;2024-02-28T01:22:19;5.47;;;4.22;;
53959;SDS011;39866;48.638;-2.020;2024-02-28T01:24:44;6.32;;;4.45;;
53959;SDS011;39866;48.638;-2.020;2024-02-28T01:27:10;6.78;;;4.50;;
53959;SDS011;39866;48.638;-2.020;2024-02-28T01:29:35;5.85;;;4.38;;
53959;SDS011;39866;48.638;-2.020;2024-02-28T01:32:00;7.88;;;4.28;;
53959;SDS011;39866;48.638;-2.020;2024-02-28T01:34:26;7.03;;;4.45;;
53959;SDS011;39866;48.638;-2.020;2024-02-28T01:36:51;6.65;;;3.78;;
53959;SDS011;39866;48.638;-2.020;2024-02-28T01:39:17;7.05;;;4.28;;
53959;SDS011;39866;48.638;-2.020;2024-02-28T01:41:50;8.25;;;4.57;;
53959;SDS011;39866;48.638;-2.020;2024-02-28T01:44:16;5.82;;;3.65;;
53959;SDS011;39866;48.638;-2.020;2024-02-28T01:46:41;6.25;;;3.80;;
53959;SDS011;39866;48.638;-2.020;2024-02-28T01:49:07;5.75;;;3.90;;
53959;SDS011;39866;48.638;-2.020;2024-02-28T01:51:32;5.05;;;3.92;;
53959;SDS011;39866;48.638;-2.020;2024-02-28T01:53:57;5.78;;;4.03;;
53959;SDS011;39866;48.638;-2.020;2024-02-28T01:56:24;5.47;;;3.70;;
53959;SDS011;39866;48.638;-2.020;2024-02-28T01:58:50;4.30;;;3.63;;
53959;SDS011;39866;48.638;-2.020;2024-02-28T02:01:16;4.32;;;3.88;;
53959;SDS011;39866;48.638;-2.020;2024-02-28T02:03:43;4.28;;;3.83;;
53959;SDS011;39866;48.638;-2.020;2024-02-28T02:06:08;4.57;;;4.00;;
53959;SDS011;39866;48.638;-2.020;2024-02-28T02:08:34;4.65;;;3.20;;
53959;SDS011;39866;48.638;-2.020;2024-02-28T02:10:59;5.53;;;3.95;;
53959;SDS011;39866;48.638;-2.020;2024-02-28T02:13:25;4.47;;;4.03;;
53959;SDS011;39866;48.638;-2.020;2024-02-28T02:15:50;4.47;;;3.85;;
53959;SDS011;39866;48.638;-2.020;2024-02-28T02:18:15;4.35;;;3.53;;
53959;SDS011;39866;48.638;-2.020;2024-02-28T02:20:42;5.75;;;3.72;;
53959;SDS011;39866;48.638;-2.020;2024-02-28T02:23:11;4.18;;;3.78;;
53959;SDS011;39866;48.638;-2.020;2024-02-28T02:25:48;4.53;;;3.83;;
53959;SDS011;39866;48.638;-2.020;2024-02-28T02:28:14;5.38;;;3.60;;
53959;SDS011;39866;48.638;-2.020;2024-02-28T02:30:40;4.28;;;3.58;;
53959;SDS011;39866;48.638;-2.020;2024-02-28T02:33:06;4.40;;;3.67;;
53959;SDS011;39866;48.638;-2.020;2024-02-28T02:35:35;4.93;;;3.78;;
53959;SDS011;39866;48.638;-2.020;2024-02-28T02:38:00;6.65;;;4.03;;
53959;SDS011;39866;48.638;-2.020;2024-02-28T02:40:26;7.10;;;4.30;;
53959;SDS011;39866;48.638;-2.020;2024-02-28T02:42:51;4.47;;;3.85;;
53959;SDS011;39866;48.638;-2.020;2024-02-28T02:45:16;4.30;;;3.90;;
53959;SDS011;39866;48.638;-2.020;2024-02-28T02:47:42;4.82;;;4.28;;
53959;SDS011;39866;48.638;-2.020;2024-02-28T02:50:09;7.25;;;4.78;;
53959;SDS011;39866;48.638;-2.020;2024-02-28T02:52:34;5.35;;;4.07;;
53959;SDS011;39866;48.638;-2.020;2024-02-28T02:54:59;6.32;;;3.80;;
53959;SDS011;39866;48.638;-2.020;2024-02-28T02:57:25;4.78;;;3.85;;
53959;SDS011;39866;48.638;-2.020;2024-02-28T02:59:50;6.05;;;4.18;;
53959;SDS011;39866;48.638;-2.020;2024-02-28T03:02:15;5.15;;;3.60;;
53959;SDS011;39866;48.638;-2.020;2024-02-28T03:04:41;3.97;;;3.58;;
53959;SDS011;39866;48.638;-2.020;2024-02-28T03:07:06;4.97;;;3.78;;
53959;SDS011;39866;48.638;-2.020;2024-02-28T03:09:31;7.22;;;4.50;;
53959;SDS011;39866;48.638;-2.020;2024-02-28T03:11:57;5.18;;;4.20;;
53959;SDS011;39866;48.638;-2.020;2024-02-28T03:14:22;5.25;;;4.25;;
53959;SDS011;39866;48.638;-2.020;2024-02-28T03:16:47;5.80;;;4.13;;
53959;SDS011;39866;48.638;-2.020;2024-02-28T03:19:14;4.53;;;4.13;;
53959;SDS011;39866;48.638;-2.020;2024-02-28T03:21:40;5.18;;;4.07;;
53959;SDS011;39866;48.638;-2.020;2024-02-28T03:24:06;4.15;;;3.72;;
53959;SDS011;39866;48.638;-2.020;2024-02-28T03:26:31;4.75;;;4.20;;
53959;SDS011;39866;48.638;-2.020;2024-02-28T03:28:57;4.30;;;3.70;;
53959;SDS011;39866;48.638;-2.020;2024-02-28T03:31:23;5.10;;;3.80;;
53959;SDS011;39866;48.638;-2.020;2024-02-28T03:33:48;3.47;;;3.17;;
53959;SDS011;39866;48.638;-2.020;2024-02-28T03:36:13;3.92;;;3.50;;
53959;SDS011;39866;48.638;-2.020;2024-02-28T03:38:38;5.60;;;4.35;;
53959;SDS011;39866;48.638;-2.020;2024-02-28T03:41:05;4.30;;;3.30;;
53959;SDS011;39866;48.638;-2.020;2024-02-28T03:43:30;3.92;;;3.47;;
53959;SDS011;39866;48.638;-2.020;2024-02-28T03:45:56;4.45;;;3.85;;
53959;SDS011;39866;48.638;-2.020;2024-02-28T03:48:21;5.13;;;4.00;;
53959;SDS011;39866;48.638;-2.020;2024-02-28T03:50:46;4.97;;;3.47;;
53959;SDS011;39866;48.638;-2.020;2024-02-28T03:53:12;4.18;;;3.65;;
53959;SDS011;39866;48.638;-2.020;2024-02-28T03:55:37;5.50;;;3.70;;
53959;SDS011;39866;48.638;-2.020;2024-02-28T03:58:02;4.50;;;4.10;;
53959;SDS011;39866;48.638;-2.020;2024-02-28T04:00:28;4.65;;;3.65;;
53959;SDS011;39866;48.638;-2.020;2024-02-28T04:02:53;4.32;;;3.42;;
53959;SDS011;39866;48.638;-2.020;2024-02-28T04:05:19;4.30;;;3.90;;
53959;SDS011;39866;48.638;-2.020;2024-02-28T04:07:44;4.10;;;3.58;;
53959;SDS011;39866;48.638;-2.020;2024-02-28T04:10:09;4.05;;;3.42;;
53959;SDS011;39866;48.638;-2.020;2024-02-28T04:12:36;6.30;;;4.00;;
53959;SDS011;39866;48.638;-2.020;2024-02-28T04:15:01;4.03;;;3.63;;
53959;SDS011;39866;48.638;-2.020;2024-02-28T04:17:27;4.32;;;3.90;;
53959;SDS011;39866;48.638;-2.020;2024-02-28T04:19:53;4.43;;;3.83;;
53959;SDS011;39866;48.638;-2.020;2024-02-28T04:22:18;4.38;;;3.90;;
53959;SDS011;39866;48.638;-2.020;2024-02-28T04:24:43;5.13;;;4.60;;
53959;SDS011;39866;48.638;-2.020;2024-02-28T04:27:09;5.38;;;4.32;;
53959;SDS011;39866;48.638;-2.020;2024-02-28T04:29:36;4.65;;;4.10;;
53959;SDS011;39866;48.638;-2.020;2024-02-28T04:32:02;4.15;;;3.78;;
53959;SDS011;39866;48.638;-2.020;2024-02-28T04:34:27;4.40;;;3.60;;
53959;SDS011;39866;48.638;-2.020;2024-02-28T04:36:52;4.55;;;3.72;;
53959;SDS011;39866;48.638;-2.020;2024-02-28T04:39:17;5.40;;;4.15;;
53959;SDS011;39866;48.638;-2.020;2024-02-28T04:41:43;5.95;;;4.30;;
53959;SDS011;39866;48.638;-2.020;2024-02-28T04:44:08;5.03;;;3.88;;
53959;SDS011;39866;48.638;-2.020;2024-02-28T04:46:34;4.72;;;3.75;;
53959;SDS011;39866;48.638;-2.020;2024-02-28T04:48:59;4.75;;;4.32;;
53959;SDS011;39866;48.638;-2.020;2024-02-28T04:51:25;4.90;;;3.80;;
53959;SDS011;39866;48.638;-2.020;2024-02-28T04:53:50;4.18;;;3.78;;
53959;SDS011;39866;48.638;-2.020;2024-02-28T04:56:15;5.18;;;4.05;;
53959;SDS011;39866;48.638;-2.020;2024-02-28T04:58:41;3.70;;;3.00;;
53959;SDS011;39866;48.638;-2.020;2024-02-28T05:01:06;4.10;;;3.70;;
53959;SDS011;39866;48.638;-2.020;2024-02-28T05:03:31;4.20;;;3.80;;
53959;SDS011;39866;48.638;-2.020;2024-02-28T05:05:57;3.85;;;3.42;;
53959;SDS011;39866;48.638;-2.020;2024-02-28T05:08:22;4.00;;;3.60;;
53959;SDS011;39866;48.638;-2.020;2024-02-28T05:10:49;4.90;;;3.97;;
53959;SDS011;39866;48.638;-2.020;2024-02-28T05:13:15;3.55;;;3.25;;
53959;SDS011;39866;48.638;-2.020;2024-02-28T05:15:40;4.15;;;3.75;;
53959;SDS011;39866;48.638;-2.020;2024-02-28T05:18:06;3.92;;;3.45;;
53959;SDS011;39866;48.638;-2.020;2024-02-28T05:20:31;4.10;;;3.60;;
53959;SDS011;39866;48.638;-2.020;2024-02-28T05:22:56;3.40;;;3.10;;
53959;SDS011;39866;48.638;-2.020;2024-02-28T05:25:22;4.18;;;3.28;;
53959;SDS011;39866;48.638;-2.020;2024-02-28T05:27:47;3.95;;;3.55;;
53959;SDS011;39866;48.638;-2.020;2024-02-28T05:30:13;3.53;;;3.22;;
53959;SDS011;39866;48.638;-2.020;2024-02-28T05:32:38;3.47;;;3.10;;
53959;SDS011;39866;48.638;-2.020;2024-02-28T05:35:04;3.30;;;2.72;;
53959;SDS011;39866;48.638;-2.020;2024-02-28T05:37:29;3.72;;;3.00;;
53959;SDS011;39866;48.638;-2.020;2024-02-28T05:39:55;3.72;;;3.00;;
53959;SDS011;39866;48.638;-2.020;2024-02-28T05:42:20;5.50;;;3.38;;
53959;SDS011;39866;48.638;-2.020;2024-02-28T05:44:49;3.53;;;2.85;;
53959;SDS011;39866;48.638;-2.020;2024-02-28T05:47:14;4.18;;;3.15;;
53959;SDS011;39866;48.638;-2.020;2024-02-28T05:49:40;3.83;;;2.70;;
53959;SDS011;39866;48.638;-2.020;2024-02-28T05:52:05;3.08;;;2.75;;
53959;SDS011;39866;48.638;-2.020;2024-02-28T05:54:30;3.20;;;2.90;;
53959;SDS011;39866;48.638;-2.020;2024-02-28T05:56:56;3.38;;;2.90;;
53959;SDS011;39866;48.638;-2.020;2024-02-28T05:59:21;4.15;;;3.00;;
53959;SDS011;39866;48.638;-2.020;2024-02-28T06:01:47;3.50;;;2.85;;
53959;SDS011;39866;48.638;-2.020;2024-02-28T06:04:12;4.55;;;3.33;;
53959;SDS011;39866;48.638;-2.020;2024-02-28T06:06:38;3.30;;;3.00;;
53959;SDS011;39866;48.638;-2.020;2024-02-28T06:09:03;3.30;;;2.78;;
53959;SDS011;39866;48.638;-2.020;2024-02-28T06:11:28;3.65;;;3.22;;
53959;SDS011;39866;48.638;-2.020;2024-02-28T06:13:54;3.42;;;2.60;;
53959;SDS011;39866;48.638;-2.020;2024-02-28T06:16:19;2.90;;;2.60;;
53959;SDS011;39866;48.638;-2.020;2024-02-28T06:18:45;3.45;;;2.60;;
53959;SDS011;39866;48.638;-2.020;2024-02-28T06:21:10;3.47;;;2.75;;
53959;SDS011;39866;48.638;-2.020;2024-02-28T06:23:35;3.60;;;2.80;;
53959;SDS011;39866;48.638;-2.020;2024-02-28T06:26:01;3.70;;;2.70;;
53959;SDS011;39866;48.638;-2.020;2024-02-28T06:28:26;2.63;;;2.40;;
53959;SDS011;39866;48.638;-2.020;2024-02-28T06:30:51;4.03;;;2.90;;
53959;SDS011;39866;48.638;-2.020;2024-02-28T06:33:17;2.85;;;2.40;;
53959;SDS011;39866;48.638;-2.020;2024-02-28T06:35:43;4.25;;;2.95;;
53959;SDS011;39866;48.638;-2.020;2024-02-28T06:38:09;3.00;;;2.60;;
53959;SDS011;39866;48.638;-2.020;2024-02-28T06:40:34;3.50;;;2.42;;
53959;SDS011;39866;48.638;-2.020;2024-02-28T06:43:00;3.15;;;2.42;;
53959;SDS011;39866;48.638;-2.020;2024-02-28T06:45:26;2.47;;;2.20;;
53959;SDS011;39866;48.638;-2.020;2024-02-28T06:47:51;3.22;;;2.17;;
53959;SDS011;39866;48.638;-2.020;2024-02-28T06:50:16;2.30;;;2.05;;
53959;SDS011;39866;48.638;-2.020;2024-02-28T06:52:42;3.13;;;2.40;;
53959;SDS011;39866;48.638;-2.020;2024-02-28T06:55:08;2.92;;;2.03;;
53959;SDS011;39866;48.638;-2.020;2024-02-28T06:57:38;2.63;;;2.20;;
53959;SDS011;39866;48.638;-2.020;2024-02-28T07:00:08;2.78;;;2.38;;
53959;SDS011;39866;48.638;-2.020;2024-02-28T07:02:36;2.50;;;2.25;;
53959;SDS011;39866;48.638;-2.020;2024-02-28T07:05:02;2.45;;;2.25;;
53959;SDS011;39866;48.638;-2.020;2024-02-28T07:07:29;2.53;;;2.33;;
53959;SDS011;39866;48.638;-2.020;2024-02-28T07:09:55;2.42;;;2.15;;
53959;SDS011;39866;48.638;-2.020;2024-02-28T07:12:21;3.45;;;2.50;;
53959;SDS011;39866;48.638;-2.020;2024-02-28T07:14:46;2.42;;;2.22;;
53959;SDS011;39866;48.638;-2.020;2024-02-28T07:17:11;2.38;;;2.17;;
53959;SDS011;39866;48.638;-2.020;2024-02-28T07:19:37;2.17;;;1.98;;
53959;SDS011;39866;48.638;-2.020;2024-02-28T07:22:02;2.60;;;2.28;;
53959;SDS011;39866;48.638;-2.020;2024-02-28T07:24:30;3.00;;;2.20;;
53959;SDS011;39866;48.638;-2.020;2024-02-28T07:26:56;2.20;;;2.05;;
53959;SDS011;39866;48.638;-2.020;2024-02-28T07:29:22;2.30;;;2.10;;
53959;SDS011;39866;48.638;-2.020;2024-02-28T07:31:49;2.10;;;1.90;;
53959;SDS011;39866;48.638;-2.020;2024-02-28T07:34:14;2.17;;;1.98;;
53959;SDS011;39866;48.638;-2.020;2024-02-28T07:36:40;1.83;;;1.73;;
53959;SDS011;39866;48.638;-2.020;2024-02-28T07:39:05;1.90;;;1.80;;
53959;SDS011;39866;48.638;-2.020;2024-02-28T07:41:30;2.60;;;2.35;;
53959;SDS011;39866;48.638;-2.020;2024-02-28T07:43:57;2.20;;;1.98;;
53959;SDS011;39866;48.638;-2.020;2024-02-28T07:46:22;1.95;;;1.80;;
53959;SDS011;39866;48.638;-2.020;2024-02-28T07:48:47;2.20;;;2.00;;
53959;SDS011;39866;48.638;-2.020;2024-02-28T07:51:13;2.13;;;2.03;;
53959;SDS011;39866;48.638;-2.020;2024-02-28T07:53:38;2.28;;;2.08;;
53959;SDS011;39866;48.638;-2.020;2024-02-28T07:56:04;2.30;;;2.10;;
53959;SDS011;39866;48.638;-2.020;2024-02-28T07:58:29;2.40;;;2.20;;
53959;SDS011;39866;48.638;-2.020;2024-02-28T08:00:54;1.90;;;1.80;;
53959;SDS011;39866;48.638;-2.020;2024-02-28T08:03:20;2.20;;;2.00;;
53959;SDS011;39866;48.638;-2.020;2024-02-28T08:05:45;1.80;;;1.70;;
53959;SDS011;39866;48.638;-2.020;2024-02-28T08:08:11;2.38;;;2.17;;
53959;SDS011;39866;48.638;-2.020;2024-02-28T08:10:39;2.33;;;2.13;;
53959;SDS011;39866;48.638;-2.020;2024-02-28T08:13:04;2.17;;;2.08;;
53959;SDS011;39866;48.638;-2.020;2024-02-28T08:15:30;2.00;;;1.90;;
53959;SDS011;39866;48.638;-2.020;2024-02-28T08:17:56;2.20;;;2.00;;
53959;SDS011;39866;48.638;-2.020;2024-02-28T08:20:22;2.13;;;2.03;;
53959;SDS011;39866;48.638;-2.020;2024-02-28T08:22:47;2.40;;;2.20;;
53959;SDS011;39866;48.638;-2.020;2024-02-28T08:25:12;2.22;;;2.05;;
53959;SDS011;39866;48.638;-2.020;2024-02-28T08:27:39;1.90;;;1.80;;
53959;SDS011;39866;48.638;-2.020;2024-02-28T08:30:05;2.15;;;1.95;;
53959;SDS011;39866;48.638;-2.020;2024-02-28T08:32:33;2.15;;;1.95;;
53959;SDS011;39866;48.638;-2.020;2024-02-28T08:34:59;2.20;;;2.00;;
53959;SDS011;39866;48.638;-2.020;2024-02-28T08:37:25;1.98;;;1.80;;
53959;SDS011;39866;48.638;-2.020;2024-02-28T08:39:52;2.38;;;2.00;;
53959;SDS011;39866;48.638;-2.020;2024-02-28T08:42:17;2.40;;;2.20;;
53959;SDS011;39866;48.638;-2.020;2024-02-28T08:44:43;2.50;;;2.30;;
53959;SDS011;39866;48.638;-2.020;2024-02-28T08:47:08;2.60;;;2.28;;
53959;SDS011;39866;48.638;-2.020;2024-02-28T08:49:36;2.10;;;1.90;;
53959;SDS011;39866;48.638;-2.020;2024-02-28T08:52:04;2.30;;;2.10;;
53959;SDS011;39866;48.638;-2.020;2024-02-28T08:54:29;2.35;;;2.13;;
53959;SDS011;39866;48.638;-2.020;2024-02-28T08:56:55;2.60;;;2.30;;
53959;SDS011;39866;48.638;-2.020;2024-02-28T08:59:20;3.08;;;2.75;;
53959;SDS011;39866;48.638;-2.020;2024-02-28T09:01:46;2.70;;;2.50;;
53959;SDS011;39866;48.638;-2.020;2024-02-28T09:04:12;3.45;;;2.95;;
53959;SDS011;39866;48.638;-2.020;2024-02-28T09:06:37;3.38;;;3.00;;
53959;SDS011;39866;48.638;-2.020;2024-02-28T09:09:03;3.58;;;3.13;;
53959;SDS011;39866;48.638;-2.020;2024-02-28T09:11:28;3.50;;;3.20;;
53959;SDS011;39866;48.638;-2.020;2024-02-28T09:13:54;6.00;;;4.10;;
53959;SDS011;39866;48.638;-2.020;2024-02-28T09:16:19;3.42;;;3.13;;
53959;SDS011;39866;48.638;-2.020;2024-02-28T09:18:45;3.90;;;3.47;;
53959;SDS011;39866;48.638;-2.020;2024-02-28T09:21:10;3.63;;;3.08;;
53959;SDS011;39866;48.638;-2.020;2024-02-28T09:23:36;3.50;;;3.20;;
53959;SDS011;39866;48.638;-2.020;2024-02-28T09:26:04;2.53;;;2.33;;
53959;SDS011;39866;48.638;-2.020;2024-02-28T09:28:30;3.00;;;2.80;;
53959;SDS011;39866;48.638;-2.020;2024-02-28T09:30:59;3.28;;;3.00;;
53959;SDS011;39866;48.638;-2.020;2024-02-28T09:33:24;3.13;;;2.92;;
53959;SDS011;39866;48.638;-2.020;2024-02-28T09:35:50;3.10;;;2.80;;
53959;SDS011;39866;48.638;-2.020;2024-02-28T09:38:15;3.65;;;3.33;;
53959;SDS011;39866;48.638;-2.020;2024-02-28T09:40:41;3.30;;;3.00;;
53959;SDS011;39866;48.638;-2.020;2024-02-28T09:43:15;3.30;;;3.00;;
53959;SDS011;39866;48.638;-2.020;2024-02-28T09:45:44;3.60;;;3.30;;
53959;SDS011;39866;48.638;-2.020;2024-02-28T09:48:09;3.88;;;3.47;;
53959;SDS011;39866;48.638;-2.020;2024-02-28T09:50:36;3.65;;;3.35;;
53959;SDS011;39866;48.638;-2.020;2024-02-28T09:53:03;3.67;;;3.25;;
53959;SDS011;39866;48.638;-2.020;2024-02-28T09:55:29;3.33;;;3.03;;
53959;SDS011;39866;48.638;-2.020;2024-02-28T09:57:54;3.17;;;2.88;;
53959;SDS011;39866;48.638;-2.020;2024-02-28T10:00:20;3.17;;;2.78;;
53959;SDS011;39866;48.638;-2.020;2024-02-28T10:02:46;3.13;;;2.83;;
53959;SDS011;39866;48.638;-2.020;2024-02-28T10:05:16;3.55;;;2.80;;
53959;SDS011;39866;48.638;-2.020;2024-02-28T10:07:43;2.95;;;2.65;;
53959;SDS011;39866;48.638;-2.020;2024-02-28T10:10:14;3.03;;;2.72;;
53959;SDS011;39866;48.638;-2.020;2024-02-28T10:12:41;2.55;;;2.35;;
53959;SDS011;39866;48.638;-2.020;2024-02-28T10:15:08;2.47;;;2.28;;
53959;SDS011;39866;48.638;-2.020;2024-02-28T10:17:35;2.60;;;2.40;;
53959;SDS011;39866;48.638;-2.020;2024-02-28T10:20:01;2.50;;;2.30;;
53959;SDS011;39866;48.638;-2.020;2024-02-28T10:22:33;2.47;;;2.28;;
53959;SDS011;39866;48.638;-2.020;2024-02-28T10:25:01;2.75;;;2.55;;
53959;SDS011;39866;48.638;-2.020;2024-02-28T10:27:28;2.70;;;2.50;;
53959;SDS011;39866;48.638;-2.020;2024-02-28T10:29:57;2.78;;;2.45;;
53959;SDS011;39866;48.638;-2.020;2024-02-28T10:32:22;2.25;;;2.13;;
53959;SDS011;39866;48.638;-2.020;2024-02-28T10:34:48;2.03;;;1.92;;
53959;SDS011;39866;48.638;-2.020;2024-02-28T10:37:13;2.50;;;2.30;;
53959;SDS011;39866;48.638;-2.020;2024-02-28T10:39:39;3.30;;;2.08;;
53959;SDS011;39866;48.638;-2.020;2024-02-28T10:42:06;1.90;;;1.80;;
53959;SDS011;39866;48.638;-2.020;2024-02-28T10:44:34;2.17;;;2.03;;
53959;SDS011;39866;48.638;-2.020;2024-02-28T10:47:00;2.10;;;2.00;;
53959;SDS011;39866;48.638;-2.020;2024-02-28T10:49:27;2.20;;;2.05;;
53959;SDS011;39866;48.638;-2.020;2024-02-28T10:51:53;1.92;;;1.83;;
53959;SDS011;39866;48.638;-2.020;2024-02-28T10:54:21;1.85;;;1.70;;
53959;SDS011;39866;48.638;-2.020;2024-02-28T10:56:50;2.00;;;1.90;;
53959;SDS011;39866;48.638;-2.020;2024-02-28T10:59:16;1.77;;;1.67;;
53959;SDS011;39866;48.638;-2.020;2024-02-28T11:01:42;1.90;;;1.80;;
53959;SDS011;39866;48.638;-2.020;2024-02-28T11:04:13;1.80;;;1.70;;
53959;SDS011;39866;48.638;-2.020;2024-02-28T11:06:47;1.80;;;1.70;;
53959;SDS011;39866;48.638;-2.020;2024-02-28T11:09:18;2.10;;;2.00;;
53959;SDS011;39866;48.638;-2.020;2024-02-28T11:11:44;1.90;;;1.80;;
53959;SDS011;39866;48.638;-2.020;2024-02-28T11:14:14;1.70;;;1.60;;
53959;SDS011;39866;48.638;-2.020;2024-02-28T11:16:40;1.70;;;1.60;;
53959;SDS011;39866;48.638;-2.020;2024-02-28T11:19:09;1.60;;;1.50;;
53959;SDS011;39866;48.638;-2.020;2024-02-28T11:21:45;1.70;;;1.60;;
53959;SDS011;39866;48.638;-2.020;2024-02-28T11:24:12;1.67;;;1.58;;
53959;SDS011;39866;48.638;-2.020;2024-02-28T11:26:38;1.60;;;1.50;;
53959;SDS011;39866;48.638;-2.020;2024-02-28T11:29:03;1.65;;;1.55;;
53959;SDS011;39866;48.638;-2.020;2024-02-28T11:31:28;1.90;;;1.80;;
53959;SDS011;39866;48.638;-2.020;2024-02-28T11:33:54;1.90;;;1.80;;
53959;SDS011;39866;48.638;-2.020;2024-02-28T11:36:19;1.95;;;1.85;;
53959;SDS011;39866;48.638;-2.020;2024-02-28T11:38:44;1.90;;;1.80;;
53959;SDS011;39866;48.638;-2.020;2024-02-28T11:41:11;2.58;;;2.15;;
53959;SDS011;39866;48.638;-2.020;2024-02-28T11:43:36;1.90;;;1.80;;
53959;SDS011;39866;48.638;-2.020;2024-02-28T11:46:02;1.90;;;1.80;;
53959;SDS011;39866;48.638;-2.020;2024-02-28T11:48:33;2.00;;;1.90;;
53959;SDS011;39866;48.638;-2.020;2024-02-28T11:50:58;1.85;;;1.75;;
53959;SDS011;39866;48.638;-2.020;2024-02-28T11:53:24;1.83;;;1.73;;
53959;SDS011;39866;48.638;-2.020;2024-02-28T11:55:51;1.83;;;1.73;;
53959;SDS011;39866;48.638;-2.020;2024-02-28T11:58:17;1.88;;;1.77;;
53959;SDS011;39866;48.638;-2.020;2024-02-28T12:00:49;1.70;;;1.60;;
53959;SDS011;39866;48.638;-2.020;2024-02-28T12:03:21;1.98;;;1.88;;
53959;SDS011;39866;48.638;-2.020;2024-02-28T12:05:55;1.85;;;1.75;;
53959;SDS011;39866;48.638;-2.020;2024-02-28T12:08:20;2.20;;;2.00;;
53959;SDS011;39866;48.638;-2.020;2024-02-28T12:10:46;2.05;;;1.90;;
53959;SDS011;39866;48.638;-2.020;2024-02-28T12:13:15;2.95;;;1.95;;
53959;SDS011;39866;48.638;-2.020;2024-02-28T12:15:43;1.70;;;1.60;;
53959;SDS011;39866;48.638;-2.020;2024-02-28T12:18:11;1.80;;;1.70;;
53959;SDS011;39866;48.638;-2.020;2024-02-28T12:20:36;1.90;;;1.80;;
53959;SDS011;39866;48.638;-2.020;2024-02-28T12:23:05;1.98;;;1.88;;
53959;SDS011;39866;48.638;-2.020;2024-02-28T12:25:30;2.70;;;2.05;;
53959;SDS011;39866;48.638;-2.020;2024-02-28T12:27:56;2.13;;;1.92;;
53959;SDS011;39866;48.638;-2.020;2024-02-28T12:30:21;2.28;;;2.08;;
53959;SDS011;39866;48.638;-2.020;2024-02-28T12:32:47;2.20;;;2.10;;
53959;SDS011;39866;48.638;-2.020;2024-02-28T12:35:12;2.00;;;1.90;;
53959;SDS011;39866;48.638;-2.020;2024-02-28T12:37:37;2.47;;;2.28;;
53959;SDS011;39866;48.638;-2.020;2024-02-28T12:40:04;2.00;;;1.90;;
53959;SDS011;39866;48.638;-2.020;2024-02-28T12:42:30;2.30;;;1.90;;
53959;SDS011;39866;48.638;-2.020;2024-02-28T12:44:56;2.00;;;1.90;;
53959;SDS011;39866;48.638;-2.020;2024-02-28T12:47:22;2.63;;;2.42;;
53959;SDS011;39866;48.638;-2.020;2024-02-28T12:49:47;2.20;;;2.10;;
53959;SDS011;39866;48.638;-2.020;2024-02-28T12:52:12;2.00;;;1.90;;
53959;SDS011;39866;48.638;-2.020;2024-02-28T12:54:38;2.10;;;2.00;;
53959;SDS011;39866;48.638;-2.020;2024-02-28T12:57:03;2.20;;;2.00;;
53959;SDS011;39866;48.638;-2.020;2024-02-28T12:59:31;2.22;;;2.13;;
53959;SDS011;39866;48.638;-2.020;2024-02-28T13:01:56;2.10;;;2.00;;
53959;SDS011;39866;48.638;-2.020;2024-02-28T13:04:21;2.00;;;1.90;;
53959;SDS011;39866;48.638;-2.020;2024-02-28T13:06:47;4.07;;;2.42;;
53959;SDS011;39866;48.638;-2.020;2024-02-28T13:09:12;2.17;;;2.00;;
53959;SDS011;39866;48.638;-2.020;2024-02-28T13:11:38;1.80;;;1.70;;
53959;SDS011;39866;48.638;-2.020;2024-02-28T13:14:04;1.92;;;1.83;;
53959;SDS011;39866;48.638;-2.020;2024-02-28T13:16:29;2.05;;;1.90;;
53959;SDS011;39866;48.638;-2.020;2024-02-28T13:18:55;3.28;;;2.33;;
53959;SDS011;39866;48.638;-2.020;2024-02-28T13:21:20;2.20;;;2.10;;
53959;SDS011;39866;48.638;-2.020;2024-02-28T13:23:46;2.33;;;2.10;;
53959;SDS011;39866;48.638;-2.020;2024-02-28T13:26:12;2.30;;;2.10;;
53959;SDS011;39866;48.638;-2.020;2024-02-28T13:28:42;2.70;;;2.50;;
53959;SDS011;39866;48.638;-2.020;2024-02-28T13:31:09;2.28;;;2.10;;
53959;SDS011;39866;48.638;-2.020;2024-02-28T13:33:34;2.50;;;2.30;;
53959;SDS011;39866;48.638;-2.020;2024-02-28T13:36:02;4.22;;;2.67;;
53959;SDS011;39866;48.638;-2.020;2024-02-28T13:38:27;3.05;;;2.38;;
53959;SDS011;39866;48.638;-2.020;2024-02-28T13:40:52;2.70;;;2.50;;
53959;SDS011;39866;48.638;-2.020;2024-02-28T13:43:18;2.40;;;2.20;;
53959;SDS011;39866;48.638;-2.020;2024-02-28T13:45:47;2.50;;;2.30;;
53959;SDS011;39866;48.638;-2.020;2024-02-28T13:50:53;2.70;;;2.50;;
53959;SDS011;39866;48.638;-2.020;2024-02-28T13:53:19;3.53;;;2.78;;
53959;SDS011;39866;48.638;-2.020;2024-02-28T13:55:44;2.78;;;2.50;;
53959;SDS011;39866;48.638;-2.020;2024-02-28T13:58:13;2.50;;;2.30;;
53959;SDS011;39866;48.638;-2.020;2024-02-28T14:00:43;2.53;;;2.33;;
53959;SDS011;39866;48.638;-2.020;2024-02-28T14:03:10;2.90;;;2.60;;
53959;SDS011;39866;48.638;-2.020;2024-02-28T14:05:36;2.70;;;2.50;;
53959;SDS011;39866;48.638;-2.020;2024-02-28T14:08:01;4.15;;;2.90;;
53959;SDS011;39866;48.638;-2.020;2024-02-28T14:10:28;2.53;;;2.33;;
53959;SDS011;39866;48.638;-2.020;2024-02-28T14:12:54;2.40;;;2.20;;
53959;SDS011;39866;48.638;-2.020;2024-02-28T14:15:19;2.78;;;2.35;;
53959;SDS011;39866;48.638;-2.020;2024-02-28T14:17:45;4.68;;;3.20;;
53959;SDS011;39866;48.638;-2.020;2024-02-28T14:20:11;3.15;;;2.85;;
53959;SDS011;39866;48.638;-2.020;2024-02-28T14:22:37;3.45;;;2.85;;
53959;SDS011;39866;48.638;-2.020;2024-02-28T14:25:06;4.25;;;2.58;;
53959;SDS011;39866;48.638;-2.020;2024-02-28T14:27:45;2.30;;;2.10;;
53959;SDS011;39866;48.638;-2.020;2024-02-28T14:30:12;2.05;;;1.95;;